sensor_id;sensor_type;location;lat;lon;timestamp;P1;durP1;ratioP1;P2;durP2;ratioP2
16957;SDS011;8595;52.542;11.974;2023-07-08T00:00:07;7.10;;;4.50;;
16957;SDS011;8595;52.542;11.974;2023-07-08T00:02:36;6.40;;;5.07;;
16957;SDS011;8595;52.542;11.974;2023-07-08T00:05:03;5.78;;;4.63;;
16957;SDS011;8595;52.542;11.974;2023-07-08T00:07:31;9.60;;;4.45;;
16957;SDS011;8595;52.542;11.974;2023-07-08T00:09:58;5.63;;;4.82;;
16957;SDS011;8595;52.542;11.974;2023-07-08T00:12:25;13.45;;;5.45;;
16957;SDS011;8595;52.542;11.974;2023-07-08T00:14:51;5.00;;;4.38;;
16957;SDS011;8595;52.542;11.974;2023-07-08T00:17:18;5.15;;;4.65;;
16957;SDS011;8595;52.542;11.974;2023-07-08T00:19:45;6.00;;;5.13;;
16957;SDS011;8595;52.542;11.974;2023-07-08T00:22:12;4.72;;;4.32;;
16957;SDS011;8595;52.542;11.974;2023-07-08T00:24:42;5.50;;;4.97;;
16957;SDS011;8595;52.542;11.974;2023-07-08T00:27:10;7.00;;;5.03;;
16957;SDS011;8595;52.542;11.974;2023-07-08T00:29:38;5.30;;;4.80;;
16957;SDS011;8595;52.542;11.974;2023-07-08T00:32:09;7.00;;;4.88;;
16957;SDS011;8595;52.542;11.974;2023-07-08T00:34:37;5.70;;;5.18;;
16957;SDS011;8595;52.542;11.974;2023-07-08T00:37:04;7.57;;;5.00;;
16957;SDS011;8595;52.542;11.974;2023-07-08T00:39:31;5.50;;;5.00;;
16957;SDS011;8595;52.542;11.974;2023-07-08T00:41:59;4.90;;;4.40;;
16957;SDS011;8595;52.542;11.974;2023-07-08T00:44:26;5.00;;;4.50;;
16957;SDS011;8595;52.542;11.974;2023-07-08T00:46:55;6.07;;;4.30;;
16957;SDS011;8595;52.542;11.974;2023-07-08T00:49:29;6.65;;;4.18;;
16957;SDS011;8595;52.542;11.974;2023-07-08T00:52:19;5.07;;;4.57;;
16957;SDS011;8595;52.542;11.974;2023-07-08T00:54:51;6.18;;;5.20;;
16957;SDS011;8595;52.542;11.974;2023-07-08T00:57:20;5.32;;;4.82;;
16957;SDS011;8595;52.542;11.974;2023-07-08T00:59:52;5.95;;;5.00;;
16957;SDS011;8595;52.542;11.974;2023-07-08T01:02:22;6.05;;;5.45;;
16957;SDS011;8595;52.542;11.974;2023-07-08T01:04:52;6.05;;;4.82;;
16957;SDS011;8595;52.542;11.974;2023-07-08T01:07:22;6.43;;;4.85;;
16957;SDS011;8595;52.542;11.974;2023-07-08T01:09:52;7.47;;;5.38;;
16957;SDS011;8595;52.542;11.974;2023-07-08T01:12:26;5.68;;;4.78;;
16957;SDS011;8595;52.542;11.974;2023-07-08T01:14:57;5.88;;;5.28;;
16957;SDS011;8595;52.542;11.974;2023-07-08T01:17:28;5.53;;;5.00;;
16957;SDS011;8595;52.542;11.974;2023-07-08T01:19:58;8.50;;;5.03;;
16957;SDS011;8595;52.542;11.974;2023-07-08T01:22:26;5.85;;;5.00;;
16957;SDS011;8595;52.542;11.974;2023-07-08T01:24:57;5.75;;;5.20;;
16957;SDS011;8595;52.542;11.974;2023-07-08T01:27:28;7.32;;;5.30;;
16957;SDS011;8595;52.542;11.974;2023-07-08T01:29:56;7.55;;;6.03;;
16957;SDS011;8595;52.542;11.974;2023-07-08T01:32:23;7.38;;;5.57;;
16957;SDS011;8595;52.542;11.974;2023-07-08T01:34:50;6.00;;;5.43;;
16957;SDS011;8595;52.542;11.974;2023-07-08T01:37:31;7.07;;;5.55;;
16957;SDS011;8595;52.542;11.974;2023-07-08T01:40:13;7.47;;;6.28;;
16957;SDS011;8595;52.542;11.974;2023-07-08T01:42:49;6.03;;;5.43;;
16957;SDS011;8595;52.542;11.974;2023-07-08T01:45:18;5.95;;;5.07;;
16957;SDS011;8595;52.542;11.974;2023-07-08T01:47:47;5.90;;;5.30;;
16957;SDS011;8595;52.542;11.974;2023-07-08T01:50:16;6.78;;;5.88;;
16957;SDS011;8595;52.542;11.974;2023-07-08T01:52:45;8.68;;;5.00;;
16957;SDS011;8595;52.542;11.974;2023-07-08T01:55:13;6.28;;;5.68;;
16957;SDS011;8595;52.542;11.974;2023-07-08T01:57:40;6.20;;;5.60;;
16957;SDS011;8595;52.542;11.974;2023-07-08T02:00:07;9.65;;;5.55;;
16957;SDS011;8595;52.542;11.974;2023-07-08T02:02:34;7.18;;;5.80;;
16957;SDS011;8595;52.542;11.974;2023-07-08T02:05:01;10.10;;;6.03;;
16957;SDS011;8595;52.542;11.974;2023-07-08T02:07:27;7.60;;;6.13;;
16957;SDS011;8595;52.542;11.974;2023-07-08T02:09:55;5.80;;;5.30;;
16957;SDS011;8595;52.542;11.974;2023-07-08T02:12:22;8.98;;;6.80;;
16957;SDS011;8595;52.542;11.974;2023-07-08T02:14:49;7.05;;;6.35;;
16957;SDS011;8595;52.542;11.974;2023-07-08T02:17:16;7.20;;;6.50;;
16957;SDS011;8595;52.542;11.974;2023-07-08T02:19:42;9.75;;;6.00;;
16957;SDS011;8595;52.542;11.974;2023-07-08T02:22:09;7.38;;;6.30;;
16957;SDS011;8595;52.542;11.974;2023-07-08T02:24:36;7.00;;;6.30;;
16957;SDS011;8595;52.542;11.974;2023-07-08T02:27:05;6.10;;;5.50;;
16957;SDS011;8595;52.542;11.974;2023-07-08T02:29:31;7.40;;;6.70;;
16957;SDS011;8595;52.542;11.974;2023-07-08T02:31:58;7.82;;;6.53;;
16957;SDS011;8595;52.542;11.974;2023-07-08T02:34:25;7.30;;;6.60;;
16957;SDS011;8595;52.542;11.974;2023-07-08T02:36:52;6.68;;;5.97;;
16957;SDS011;8595;52.542;11.974;2023-07-08T02:39:19;12.10;;;7.18;;
16957;SDS011;8595;52.542;11.974;2023-07-08T02:41:45;7.57;;;6.82;;
16957;SDS011;8595;52.542;11.974;2023-07-08T02:44:13;9.60;;;7.00;;
16957;SDS011;8595;52.542;11.974;2023-07-08T02:46:40;7.72;;;7.07;;
16957;SDS011;8595;52.542;11.974;2023-07-08T02:49:07;7.53;;;6.82;;
16957;SDS011;8595;52.542;11.974;2023-07-08T02:51:33;7.93;;;6.88;;
16957;SDS011;8595;52.542;11.974;2023-07-08T02:54:00;7.88;;;7.13;;
16957;SDS011;8595;52.542;11.974;2023-07-08T02:56:27;9.68;;;7.35;;
16957;SDS011;8595;52.542;11.974;2023-07-08T02:58:54;7.70;;;6.65;;
16957;SDS011;8595;52.542;11.974;2023-07-08T03:01:22;8.95;;;7.07;;
16957;SDS011;8595;52.542;11.974;2023-07-08T03:03:51;8.25;;;7.45;;
16957;SDS011;8595;52.542;11.974;2023-07-08T03:06:19;7.47;;;6.80;;
16957;SDS011;8595;52.542;11.974;2023-07-08T03:08:46;8.27;;;7.13;;
16957;SDS011;8595;52.542;11.974;2023-07-08T03:11:13;7.05;;;6.43;;
16957;SDS011;8595;52.542;11.974;2023-07-08T03:13:40;8.68;;;7.53;;
16957;SDS011;8595;52.542;11.974;2023-07-08T03:16:07;10.02;;;7.47;;
16957;SDS011;8595;52.542;11.974;2023-07-08T03:18:39;8.20;;;6.95;;
16957;SDS011;8595;52.542;11.974;2023-07-08T03:21:11;9.40;;;7.78;;
16957;SDS011;8595;52.542;11.974;2023-07-08T03:23:38;8.27;;;7.47;;
16957;SDS011;8595;52.542;11.974;2023-07-08T03:26:05;10.35;;;8.45;;
16957;SDS011;8595;52.542;11.974;2023-07-08T03:28:32;8.77;;;7.07;;
16957;SDS011;8595;52.542;11.974;2023-07-08T03:30:58;9.40;;;8.30;;
16957;SDS011;8595;52.542;11.974;2023-07-08T03:33:25;8.32;;;7.53;;
16957;SDS011;8595;52.542;11.974;2023-07-08T03:35:53;11.15;;;7.85;;
16957;SDS011;8595;52.542;11.974;2023-07-08T03:38:21;11.43;;;7.78;;
16957;SDS011;8595;52.542;11.974;2023-07-08T03:40:48;8.52;;;7.20;;
16957;SDS011;8595;52.542;11.974;2023-07-08T03:43:15;8.10;;;7.30;;
16957;SDS011;8595;52.542;11.974;2023-07-08T03:45:42;11.18;;;7.85;;
16957;SDS011;8595;52.542;11.974;2023-07-08T03:48:09;8.30;;;7.50;;
16957;SDS011;8595;52.542;11.974;2023-07-08T03:50:37;8.63;;;7.82;;
16957;SDS011;8595;52.542;11.974;2023-07-08T03:53:05;10.45;;;7.97;;
16957;SDS011;8595;52.542;11.974;2023-07-08T03:55:34;8.65;;;7.82;;
16957;SDS011;8595;52.542;11.974;2023-07-08T03:58:01;8.52;;;7.70;;
16957;SDS011;8595;52.542;11.974;2023-07-08T04:00:27;11.27;;;8.35;;
16957;SDS011;8595;52.542;11.974;2023-07-08T04:02:54;9.93;;;7.18;;
16957;SDS011;8595;52.542;11.974;2023-07-08T04:05:21;9.23;;;8.00;;
16957;SDS011;8595;52.542;11.974;2023-07-08T04:07:49;8.85;;;7.95;;
16957;SDS011;8595;52.542;11.974;2023-07-08T04:10:17;8.77;;;7.93;;
16957;SDS011;8595;52.542;11.974;2023-07-08T04:12:43;9.85;;;8.65;;
16957;SDS011;8595;52.542;11.974;2023-07-08T04:15:10;8.95;;;8.15;;
16957;SDS011;8595;52.542;11.974;2023-07-08T04:17:39;9.57;;;8.20;;
16957;SDS011;8595;52.542;11.974;2023-07-08T04:20:10;10.18;;;8.27;;
16957;SDS011;8595;52.542;11.974;2023-07-08T04:22:39;9.77;;;8.35;;
16957;SDS011;8595;52.542;11.974;2023-07-08T04:25:06;8.65;;;7.85;;
16957;SDS011;8595;52.542;11.974;2023-07-08T04:27:34;8.43;;;7.50;;
16957;SDS011;8595;52.542;11.974;2023-07-08T04:30:01;9.65;;;8.20;;
16957;SDS011;8595;52.542;11.974;2023-07-08T04:32:29;8.27;;;7.57;;
16957;SDS011;8595;52.542;11.974;2023-07-08T04:34:55;9.57;;;7.97;;
16957;SDS011;8595;52.542;11.974;2023-07-08T04:37:22;9.50;;;8.00;;
16957;SDS011;8595;52.542;11.974;2023-07-08T04:39:49;10.77;;;8.32;;
16957;SDS011;8595;52.542;11.974;2023-07-08T04:42:16;8.88;;;8.07;;
16957;SDS011;8595;52.542;11.974;2023-07-08T04:44:44;9.40;;;8.45;;
16957;SDS011;8595;52.542;11.974;2023-07-08T04:47:11;9.38;;;7.90;;
16957;SDS011;8595;52.542;11.974;2023-07-08T04:49:39;9.50;;;8.13;;
16957;SDS011;8595;52.542;11.974;2023-07-08T04:52:08;8.85;;;7.95;;
16957;SDS011;8595;52.542;11.974;2023-07-08T04:54:35;10.38;;;8.32;;
16957;SDS011;8595;52.542;11.974;2023-07-08T04:57:05;10.27;;;8.98;;
16957;SDS011;8595;52.542;11.974;2023-07-08T04:59:32;9.57;;;8.00;;
16957;SDS011;8595;52.542;11.974;2023-07-08T05:02:01;11.25;;;8.85;;
16957;SDS011;8595;52.542;11.974;2023-07-08T05:04:27;9.45;;;8.60;;
16957;SDS011;8595;52.542;11.974;2023-07-08T05:06:54;9.80;;;8.77;;
16957;SDS011;8595;52.542;11.974;2023-07-08T05:09:21;9.45;;;8.38;;
16957;SDS011;8595;52.542;11.974;2023-07-08T05:11:50;8.95;;;8.05;;
16957;SDS011;8595;52.542;11.974;2023-07-08T05:14:17;10.57;;;9.52;;
16957;SDS011;8595;52.542;11.974;2023-07-08T05:16:44;9.20;;;8.30;;
16957;SDS011;8595;52.542;11.974;2023-07-08T05:19:12;10.80;;;8.73;;
16957;SDS011;8595;52.542;11.974;2023-07-08T05:21:39;8.93;;;7.78;;
16957;SDS011;8595;52.542;11.974;2023-07-08T05:24:06;9.45;;;8.50;;
16957;SDS011;8595;52.542;11.974;2023-07-08T05:26:33;11.05;;;8.30;;
16957;SDS011;8595;52.542;11.974;2023-07-08T05:29:00;11.48;;;8.45;;
16957;SDS011;8595;52.542;11.974;2023-07-08T05:31:27;8.82;;;8.02;;
16957;SDS011;8595;52.542;11.974;2023-07-08T05:33:53;9.20;;;8.35;;
16957;SDS011;8595;52.542;11.974;2023-07-08T05:36:21;10.20;;;7.20;;
16957;SDS011;8595;52.542;11.974;2023-07-08T05:38:48;9.23;;;8.02;;
16957;SDS011;8595;52.542;11.974;2023-07-08T05:41:15;9.13;;;8.07;;
16957;SDS011;8595;52.542;11.974;2023-07-08T05:43:42;8.65;;;7.85;;
16957;SDS011;8595;52.542;11.974;2023-07-08T05:46:08;15.43;;;7.82;;
16957;SDS011;8595;52.542;11.974;2023-07-08T05:48:35;8.45;;;7.75;;
16957;SDS011;8595;52.542;11.974;2023-07-08T05:51:02;9.05;;;8.15;;
16957;SDS011;8595;52.542;11.974;2023-07-08T05:53:30;8.98;;;8.05;;
16957;SDS011;8595;52.542;11.974;2023-07-08T05:55:57;9.85;;;7.90;;
16957;SDS011;8595;52.542;11.974;2023-07-08T05:58:23;7.50;;;6.68;;
16957;SDS011;8595;52.542;11.974;2023-07-08T06:00:54;8.02;;;7.30;;
16957;SDS011;8595;52.542;11.974;2023-07-08T06:03:22;8.77;;;7.45;;
16957;SDS011;8595;52.542;11.974;2023-07-08T06:05:49;10.98;;;8.20;;
16957;SDS011;8595;52.542;11.974;2023-07-08T06:08:16;7.55;;;6.82;;
16957;SDS011;8595;52.542;11.974;2023-07-08T06:10:44;8.18;;;7.32;;
16957;SDS011;8595;52.542;11.974;2023-07-08T06:13:11;8.35;;;6.43;;
16957;SDS011;8595;52.542;11.974;2023-07-08T06:15:38;10.13;;;7.13;;
16957;SDS011;8595;52.542;11.974;2023-07-08T06:18:05;10.43;;;7.05;;
16957;SDS011;8595;52.542;11.974;2023-07-08T06:20:32;6.75;;;6.05;;
16957;SDS011;8595;52.542;11.974;2023-07-08T06:22:59;7.32;;;6.38;;
16957;SDS011;8595;52.542;11.974;2023-07-08T06:25:26;8.02;;;6.55;;
16957;SDS011;8595;52.542;11.974;2023-07-08T06:27:55;7.80;;;6.60;;
16957;SDS011;8595;52.542;11.974;2023-07-08T06:30:21;12.05;;;7.03;;
16957;SDS011;8595;52.542;11.974;2023-07-08T06:32:48;6.13;;;5.53;;
16957;SDS011;8595;52.542;11.974;2023-07-08T06:35:16;9.48;;;5.90;;
16957;SDS011;8595;52.542;11.974;2023-07-08T06:37:42;6.60;;;6.00;;
16957;SDS011;8595;52.542;11.974;2023-07-08T06:40:10;12.75;;;6.45;;
16957;SDS011;8595;52.542;11.974;2023-07-08T06:42:38;6.60;;;5.90;;
16957;SDS011;8595;52.542;11.974;2023-07-08T06:45:07;8.73;;;5.95;;
16957;SDS011;8595;52.542;11.974;2023-07-08T06:47:34;6.25;;;5.65;;
16957;SDS011;8595;52.542;11.974;2023-07-08T06:50:01;7.00;;;6.30;;
16957;SDS011;8595;52.542;11.974;2023-07-08T06:52:28;6.85;;;5.40;;
16957;SDS011;8595;52.542;11.974;2023-07-08T06:54:59;6.82;;;5.55;;
16957;SDS011;8595;52.542;11.974;2023-07-08T06:57:25;6.80;;;6.20;;
16957;SDS011;8595;52.542;11.974;2023-07-08T06:59:52;6.35;;;5.75;;
16957;SDS011;8595;52.542;11.974;2023-07-08T07:02:20;7.90;;;6.10;;
16957;SDS011;8595;52.542;11.974;2023-07-08T07:04:47;6.60;;;5.85;;
16957;SDS011;8595;52.542;11.974;2023-07-08T07:07:13;6.85;;;6.15;;
16957;SDS011;8595;52.542;11.974;2023-07-08T07:09:40;11.65;;;5.90;;
16957;SDS011;8595;52.542;11.974;2023-07-08T07:12:07;7.10;;;5.65;;
16957;SDS011;8595;52.542;11.974;2023-07-08T07:14:34;6.53;;;5.93;;
16957;SDS011;8595;52.542;11.974;2023-07-08T07:17:01;5.95;;;5.35;;
16957;SDS011;8595;52.542;11.974;2023-07-08T07:19:29;6.50;;;5.30;;
16957;SDS011;8595;52.542;11.974;2023-07-08T07:21:56;9.90;;;6.15;;
16957;SDS011;8595;52.542;11.974;2023-07-08T07:24:22;5.60;;;5.10;;
16957;SDS011;8595;52.542;11.974;2023-07-08T07:26:50;6.90;;;5.10;;
16957;SDS011;8595;52.542;11.974;2023-07-08T07:29:16;6.05;;;5.45;;
16957;SDS011;8595;52.542;11.974;2023-07-08T07:31:43;6.07;;;4.75;;
16957;SDS011;8595;52.542;11.974;2023-07-08T07:34:12;8.13;;;5.18;;
16957;SDS011;8595;52.542;11.974;2023-07-08T07:36:41;5.13;;;4.63;;
16957;SDS011;8595;52.542;11.974;2023-07-08T07:39:07;7.25;;;4.43;;
16957;SDS011;8595;52.542;11.974;2023-07-08T07:41:34;5.35;;;4.85;;
16957;SDS011;8595;52.542;11.974;2023-07-08T07:44:01;5.07;;;4.57;;
16957;SDS011;8595;52.542;11.974;2023-07-08T07:46:28;6.63;;;4.82;;
16957;SDS011;8595;52.542;11.974;2023-07-08T07:48:54;7.22;;;5.43;;
16957;SDS011;8595;52.542;11.974;2023-07-08T07:51:21;6.07;;;4.70;;
16957;SDS011;8595;52.542;11.974;2023-07-08T07:53:49;5.72;;;5.13;;
16957;SDS011;8595;52.542;11.974;2023-07-08T07:56:16;7.35;;;4.53;;
16957;SDS011;8595;52.542;11.974;2023-07-08T07:58:44;16.88;;;5.20;;
16957;SDS011;8595;52.542;11.974;2023-07-08T08:01:10;6.57;;;4.97;;
16957;SDS011;8595;52.542;11.974;2023-07-08T08:03:38;15.63;;;9.48;;
16957;SDS011;8595;52.542;11.974;2023-07-08T08:06:05;6.05;;;5.30;;
16957;SDS011;8595;52.542;11.974;2023-07-08T08:08:32;8.02;;;5.15;;
16957;SDS011;8595;52.542;11.974;2023-07-08T08:11:00;5.63;;;4.88;;
16957;SDS011;8595;52.542;11.974;2023-07-08T08:13:26;5.32;;;4.82;;
16957;SDS011;8595;52.542;11.974;2023-07-08T08:15:55;5.63;;;4.95;;
16957;SDS011;8595;52.542;11.974;2023-07-08T08:18:22;5.75;;;5.15;;
16957;SDS011;8595;52.542;11.974;2023-07-08T08:20:49;7.32;;;4.57;;
16957;SDS011;8595;52.542;11.974;2023-07-08T08:23:16;7.13;;;4.38;;
16957;SDS011;8595;52.542;11.974;2023-07-08T08:25:43;7.38;;;4.53;;
16957;SDS011;8595;52.542;11.974;2023-07-08T08:28:11;6.60;;;4.47;;
16957;SDS011;8595;52.542;11.974;2023-07-08T08:30:38;6.20;;;5.22;;
16957;SDS011;8595;52.542;11.974;2023-07-08T08:33:05;5.32;;;4.65;;
16957;SDS011;8595;52.542;11.974;2023-07-08T08:35:32;9.35;;;4.70;;
16957;SDS011;8595;52.542;11.974;2023-07-08T08:37:58;6.35;;;4.55;;
16957;SDS011;8595;52.542;11.974;2023-07-08T08:40:25;7.22;;;4.72;;
16957;SDS011;8595;52.542;11.974;2023-07-08T08:42:53;6.70;;;4.63;;
16957;SDS011;8595;52.542;11.974;2023-07-08T08:45:27;5.47;;;4.53;;
16957;SDS011;8595;52.542;11.974;2023-07-08T08:47:57;4.75;;;3.88;;
16957;SDS011;8595;52.542;11.974;2023-07-08T08:50:28;4.90;;;4.30;;
16957;SDS011;8595;52.542;11.974;2023-07-08T08:52:58;5.00;;;4.50;;
16957;SDS011;8595;52.542;11.974;2023-07-08T08:55:27;6.03;;;4.22;;
16957;SDS011;8595;52.542;11.974;2023-07-08T08:57:57;5.28;;;3.90;;
16957;SDS011;8595;52.542;11.974;2023-07-08T09:00:41;9.07;;;4.00;;
16957;SDS011;8595;52.542;11.974;2023-07-08T09:03:14;5.45;;;4.18;;
16957;SDS011;8595;52.542;11.974;2023-07-08T09:05:44;4.97;;;3.95;;
16957;SDS011;8595;52.542;11.974;2023-07-08T09:08:12;4.60;;;4.20;;
16957;SDS011;8595;52.542;11.974;2023-07-08T09:10:45;4.72;;;4.28;;
16957;SDS011;8595;52.542;11.974;2023-07-08T09:13:16;4.78;;;4.00;;
16957;SDS011;8595;52.542;11.974;2023-07-08T09:15:50;4.05;;;3.65;;
16957;SDS011;8595;52.542;11.974;2023-07-08T09:18:25;4.55;;;3.33;;
16957;SDS011;8595;52.542;11.974;2023-07-08T09:20:56;4.43;;;3.60;;
16957;SDS011;8595;52.542;11.974;2023-07-08T09:23:29;4.78;;;4.30;;
16957;SDS011;8595;52.542;11.974;2023-07-08T09:26:01;5.90;;;3.95;;
16957;SDS011;8595;52.542;11.974;2023-07-08T09:28:37;3.58;;;3.28;;
16957;SDS011;8595;52.542;11.974;2023-07-08T09:31:07;4.00;;;3.50;;
16957;SDS011;8595;52.542;11.974;2023-07-08T09:33:37;5.40;;;3.78;;
16957;SDS011;8595;52.542;11.974;2023-07-08T09:36:15;4.20;;;3.13;;
16957;SDS011;8595;52.542;11.974;2023-07-08T09:38:46;3.88;;;3.50;;
16957;SDS011;8595;52.542;11.974;2023-07-08T09:41:14;4.10;;;3.70;;
16957;SDS011;8595;52.542;11.974;2023-07-08T09:44:00;4.82;;;3.78;;
16957;SDS011;8595;52.542;11.974;2023-07-08T09:46:40;3.60;;;3.25;;
16957;SDS011;8595;52.542;11.974;2023-07-08T09:49:17;6.30;;;3.33;;
16957;SDS011;8595;52.542;11.974;2023-07-08T09:51:47;4.38;;;3.08;;
16957;SDS011;8595;52.542;11.974;2023-07-08T09:54:15;6.85;;;3.10;;
16957;SDS011;8595;52.542;11.974;2023-07-08T09:56:43;5.72;;;3.50;;
16957;SDS011;8595;52.542;11.974;2023-07-08T09:59:16;4.82;;;3.40;;
16957;SDS011;8595;52.542;11.974;2023-07-08T10:01:49;5.03;;;3.30;;
16957;SDS011;8595;52.542;11.974;2023-07-08T10:04:15;5.53;;;3.03;;
16957;SDS011;8595;52.542;11.974;2023-07-08T10:06:45;4.80;;;3.33;;
16957;SDS011;8595;52.542;11.974;2023-07-08T10:09:13;4.00;;;2.90;;
16957;SDS011;8595;52.542;11.974;2023-07-08T10:11:46;3.05;;;2.78;;
16957;SDS011;8595;52.542;11.974;2023-07-08T10:14:20;5.95;;;3.13;;
16957;SDS011;8595;52.542;11.974;2023-07-08T10:16:53;5.18;;;3.20;;
16957;SDS011;8595;52.542;11.974;2023-07-08T10:19:20;6.55;;;3.20;;
16957;SDS011;8595;52.542;11.974;2023-07-08T10:21:51;6.90;;;2.67;;
16957;SDS011;8595;52.542;11.974;2023-07-08T10:24:29;4.43;;;2.72;;
16957;SDS011;8595;52.542;11.974;2023-07-08T10:27:05;4.30;;;2.78;;
16957;SDS011;8595;52.542;11.974;2023-07-08T10:29:40;3.38;;;2.72;;
16957;SDS011;8595;52.542;11.974;2023-07-08T10:32:18;5.30;;;2.67;;
16957;SDS011;8595;52.542;11.974;2023-07-08T10:34:53;4.65;;;3.08;;
16957;SDS011;8595;52.542;11.974;2023-07-08T10:37:28;5.53;;;3.08;;
16957;SDS011;8595;52.542;11.974;2023-07-08T10:40:06;3.60;;;3.20;;
16957;SDS011;8595;52.542;11.974;2023-07-08T10:42:53;4.85;;;2.80;;
16957;SDS011;8595;52.542;11.974;2023-07-08T10:45:30;2.97;;;2.70;;
16957;SDS011;8595;52.542;11.974;2023-07-08T10:48:04;3.05;;;2.65;;
16957;SDS011;8595;52.542;11.974;2023-07-08T10:50:44;6.95;;;2.70;;
16957;SDS011;8595;52.542;11.974;2023-07-08T10:53:32;3.58;;;2.95;;
16957;SDS011;8595;52.542;11.974;2023-07-08T10:56:11;3.20;;;2.42;;
16957;SDS011;8595;52.542;11.974;2023-07-08T10:58:52;3.20;;;2.90;;
16957;SDS011;8595;52.542;11.974;2023-07-08T11:01:30;4.28;;;2.95;;
16957;SDS011;8595;52.542;11.974;2023-07-08T11:04:10;3.92;;;2.83;;
16957;SDS011;8595;52.542;11.974;2023-07-08T11:06:55;5.00;;;2.95;;
16957;SDS011;8595;52.542;11.974;2023-07-08T11:09:26;6.50;;;3.25;;
16957;SDS011;8595;52.542;11.974;2023-07-08T11:11:58;4.13;;;2.63;;
16957;SDS011;8595;52.542;11.974;2023-07-08T11:14:30;6.32;;;2.78;;
16957;SDS011;8595;52.542;11.974;2023-07-08T11:17:13;4.53;;;2.90;;
16957;SDS011;8595;52.542;11.974;2023-07-08T11:19:48;6.10;;;3.28;;
16957;SDS011;8595;52.542;11.974;2023-07-08T11:22:19;4.78;;;2.92;;
16957;SDS011;8595;52.542;11.974;2023-07-08T11:24:47;4.82;;;3.00;;
16957;SDS011;8595;52.542;11.974;2023-07-08T11:27:18;3.45;;;2.95;;
16957;SDS011;8595;52.542;11.974;2023-07-08T11:29:53;5.32;;;3.17;;
16957;SDS011;8595;52.542;11.974;2023-07-08T11:32:23;3.65;;;2.72;;
16957;SDS011;8595;52.542;11.974;2023-07-08T11:34:54;5.03;;;2.70;;
16957;SDS011;8595;52.542;11.974;2023-07-08T11:37:23;2.50;;;2.30;;
16957;SDS011;8595;52.542;11.974;2023-07-08T11:39:54;3.80;;;2.58;;
16957;SDS011;8595;52.542;11.974;2023-07-08T11:42:25;4.70;;;2.85;;
16957;SDS011;8595;52.542;11.974;2023-07-08T11:45:01;3.58;;;3.00;;
16957;SDS011;8595;52.542;11.974;2023-07-08T11:47:35;5.03;;;2.92;;
16957;SDS011;8595;52.542;11.974;2023-07-08T11:50:07;5.75;;;2.97;;
16957;SDS011;8595;52.542;11.974;2023-07-08T11:52:49;3.58;;;3.05;;
16957;SDS011;8595;52.542;11.974;2023-07-08T11:55:20;3.88;;;2.72;;
16957;SDS011;8595;52.542;11.974;2023-07-08T11:57:53;4.88;;;2.78;;
16957;SDS011;8595;52.542;11.974;2023-07-08T12:00:22;3.47;;;2.90;;
16957;SDS011;8595;52.542;11.974;2023-07-08T12:02:52;2.75;;;2.40;;
16957;SDS011;8595;52.542;11.974;2023-07-08T12:05:34;4.03;;;2.88;;
16957;SDS011;8595;52.542;11.974;2023-07-08T12:08:11;3.58;;;2.83;;
16957;SDS011;8595;52.542;11.974;2023-07-08T12:10:39;5.88;;;2.95;;
16957;SDS011;8595;52.542;11.974;2023-07-08T12:13:09;4.85;;;2.90;;
16957;SDS011;8595;52.542;11.974;2023-07-08T12:15:39;3.58;;;2.85;;
16957;SDS011;8595;52.542;11.974;2023-07-08T12:18:13;3.42;;;2.80;;
16957;SDS011;8595;52.542;11.974;2023-07-08T12:20:45;3.47;;;3.10;;
16957;SDS011;8595;52.542;11.974;2023-07-08T12:23:14;3.83;;;3.00;;
16957;SDS011;8595;52.542;11.974;2023-07-08T12:25:41;3.40;;;2.78;;
16957;SDS011;8595;52.542;11.974;2023-07-08T12:28:09;3.28;;;2.72;;
16957;SDS011;8595;52.542;11.974;2023-07-08T12:30:37;4.68;;;3.00;;
16957;SDS011;8595;52.542;11.974;2023-07-08T12:33:04;5.15;;;2.83;;
16957;SDS011;8595;52.542;11.974;2023-07-08T12:35:37;5.68;;;3.30;;
16957;SDS011;8595;52.542;11.974;2023-07-08T12:38:11;4.68;;;3.05;;
16957;SDS011;8595;52.542;11.974;2023-07-08T12:40:44;4.80;;;2.75;;
16957;SDS011;8595;52.542;11.974;2023-07-08T12:43:11;3.95;;;2.67;;
16957;SDS011;8595;52.542;11.974;2023-07-08T12:45:38;3.97;;;2.92;;
16957;SDS011;8595;52.542;11.974;2023-07-08T12:48:05;4.50;;;2.60;;
16957;SDS011;8595;52.542;11.974;2023-07-08T12:50:31;4.15;;;2.83;;
16957;SDS011;8595;52.542;11.974;2023-07-08T12:52:58;5.03;;;3.00;;
16957;SDS011;8595;52.542;11.974;2023-07-08T12:55:29;5.32;;;3.33;;
16957;SDS011;8595;52.542;11.974;2023-07-08T12:57:56;3.92;;;2.92;;
16957;SDS011;8595;52.542;11.974;2023-07-08T13:00:26;3.20;;;2.90;;
16957;SDS011;8595;52.542;11.974;2023-07-08T13:02:57;4.07;;;2.45;;
16957;SDS011;8595;52.542;11.974;2023-07-08T13:05:27;3.70;;;3.40;;
16957;SDS011;8595;52.542;11.974;2023-07-08T13:07:55;5.35;;;3.15;;
16957;SDS011;8595;52.542;11.974;2023-07-08T13:10:23;3.40;;;3.10;;
16957;SDS011;8595;52.542;11.974;2023-07-08T13:12:54;4.05;;;3.15;;
16957;SDS011;8595;52.542;11.974;2023-07-08T13:15:25;3.47;;;2.90;;
16957;SDS011;8595;52.542;11.974;2023-07-08T13:17:58;6.35;;;2.90;;
16957;SDS011;8595;52.542;11.974;2023-07-08T13:20:25;4.55;;;2.63;;
16957;SDS011;8595;52.542;11.974;2023-07-08T13:22:54;4.80;;;3.08;;
16957;SDS011;8595;52.542;11.974;2023-07-08T13:25:29;3.33;;;2.70;;
16957;SDS011;8595;52.542;11.974;2023-07-08T13:28:00;3.60;;;2.92;;
16957;SDS011;8595;52.542;11.974;2023-07-08T13:30:30;3.08;;;2.78;;
16957;SDS011;8595;52.542;11.974;2023-07-08T13:32:57;3.58;;;3.08;;
16957;SDS011;8595;52.542;11.974;2023-07-08T13:35:26;3.63;;;2.88;;
16957;SDS011;8595;52.542;11.974;2023-07-08T13:37:55;4.43;;;3.10;;
16957;SDS011;8595;52.542;11.974;2023-07-08T13:40:26;7.70;;;2.85;;
16957;SDS011;8595;52.542;11.974;2023-07-08T13:42:53;4.57;;;2.85;;
16957;SDS011;8595;52.542;11.974;2023-07-08T13:45:24;3.50;;;3.20;;
16957;SDS011;8595;52.542;11.974;2023-07-08T13:47:59;6.53;;;3.03;;
16957;SDS011;8595;52.542;11.974;2023-07-08T13:50:28;4.95;;;3.08;;
16957;SDS011;8595;52.542;11.974;2023-07-08T13:53:00;4.18;;;2.90;;
16957;SDS011;8595;52.542;11.974;2023-07-08T13:55:28;4.68;;;4.28;;
16957;SDS011;8595;52.542;11.974;2023-07-08T13:57:57;5.93;;;3.30;;
16957;SDS011;8595;52.542;11.974;2023-07-08T14:00:26;5.30;;;3.22;;
16957;SDS011;8595;52.542;11.974;2023-07-08T14:02:56;4.97;;;2.70;;
16957;SDS011;8595;52.542;11.974;2023-07-08T14:05:23;5.28;;;3.25;;
16957;SDS011;8595;52.542;11.974;2023-07-08T14:07:50;7.68;;;3.30;;
16957;SDS011;8595;52.542;11.974;2023-07-08T14:10:16;5.82;;;2.97;;
16957;SDS011;8595;52.542;11.974;2023-07-08T14:12:43;5.60;;;2.88;;
16957;SDS011;8595;52.542;11.974;2023-07-08T14:15:10;6.40;;;3.20;;
16957;SDS011;8595;52.542;11.974;2023-07-08T14:17:38;4.10;;;3.20;;
16957;SDS011;8595;52.542;11.974;2023-07-08T14:20:08;4.60;;;2.90;;
16957;SDS011;8595;52.542;11.974;2023-07-08T14:22:37;4.30;;;3.25;;
16957;SDS011;8595;52.542;11.974;2023-07-08T14:25:05;4.65;;;3.20;;
16957;SDS011;8595;52.542;11.974;2023-07-08T14:27:35;4.47;;;3.08;;
16957;SDS011;8595;52.542;11.974;2023-07-08T14:30:02;3.70;;;3.05;;
16957;SDS011;8595;52.542;11.974;2023-07-08T14:32:29;5.53;;;3.10;;
16957;SDS011;8595;52.542;11.974;2023-07-08T14:35:07;3.95;;;2.95;;
16957;SDS011;8595;52.542;11.974;2023-07-08T14:37:40;3.97;;;3.00;;
16957;SDS011;8595;52.542;11.974;2023-07-08T14:40:11;3.28;;;2.95;;
16957;SDS011;8595;52.542;11.974;2023-07-08T14:42:45;3.30;;;2.78;;
16957;SDS011;8595;52.542;11.974;2023-07-08T14:45:12;3.75;;;3.05;;
16957;SDS011;8595;52.542;11.974;2023-07-08T14:47:39;3.72;;;3.28;;
16957;SDS011;8595;52.542;11.974;2023-07-08T14:50:11;5.45;;;3.35;;
16957;SDS011;8595;52.542;11.974;2023-07-08T14:52:41;4.13;;;3.15;;
16957;SDS011;8595;52.542;11.974;2023-07-08T14:55:07;3.65;;;3.25;;
16957;SDS011;8595;52.542;11.974;2023-07-08T14:57:40;3.90;;;2.95;;